Time;durP1;ratioP1;P1;durP2;ratioP2;P2;SDS_P1;SDS_P2;PMS_P1;PMS_P2;Temp;Humidity;BMP_temperature;BMP_pressure;BME280_temperature;BME280_humidity;BME280_pressure;Samples;Min_cycle;Max_cycle;Signal;HPM_P1;HPM_P2
2023/01/31 00:01:31;;;;;;;7.03;2.63;;;3.70;99.90;;;;;;7413375;19;20308;-89
2023/01/31 00:03:59;;;;;;;6.03;2.35;;;3.70;99.90;;;;;;7415886;19;20336;-86
2023/01/31 00:06:32;;;;;;;6.47;2.83;;;3.70;99.90;;;;;;7417476;19;20305;-86
2023/01/31 00:08:59;;;;;;;9.27;2.75;;;3.70;99.90;;;;;;7416646;19;20329;-86
2023/01/31 00:11:26;;;;;;;10.13;2.70;;;3.70;99.90;;;;;;7416189;19;20357;-91
2023/01/31 00:13:52;;;;;;;6.53;2.40;;;3.70;99.90;;;;;;7416887;19;20297;-86
2023/01/31 00:16:18;;;;;;;5.93;2.50;;;3.70;99.90;;;;;;7416257;19;20315;-87
2023/01/31 00:18:47;;;;;;;8.10;2.70;;;3.70;99.90;;;;;;7414833;19;21970;-86
2023/01/31 00:21:17;;;;;;;4.57;2.20;;;3.70;99.90;;;;;;7410818;19;20337;-86
2023/01/31 00:23:43;;;;;;;8.68;2.78;;;3.70;99.90;;;;;;7413665;19;20325;-88
2023/01/31 00:26:10;;;;;;;8.37;2.67;;;3.70;99.90;;;;;;7415553;19;20320;-88
2023/01/31 00:28:35;;;;;;;8.48;2.13;;;3.70;99.90;;;;;;7414647;19;20309;-88
2023/01/31 00:31:01;;;;;;;9.37;2.53;;;3.70;99.90;;;;;;7413864;19;20320;-91
2023/01/31 00:33:26;;;;;;;6.40;2.63;;;3.70;99.90;;;;;;7416142;19;20321;-87
2023/01/31 00:35:52;;;;;;;4.83;2.30;;;3.70;99.90;;;;;;7415902;19;20293;-87
2023/01/31 00:38:18;;;;;;;8.68;2.55;;;3.60;99.90;;;;;;7415229;19;20333;-92
2023/01/31 00:40:51;;;;;;;5.53;2.60;;;3.60;99.90;;;;;;7415833;19;20345;-87
2023/01/31 00:43:16;;;;;;;7.03;2.60;;;3.60;99.90;;;;;;7416162;19;20337;-86
2023/01/31 00:45:42;;;;;;;7.53;2.85;;;3.60;99.90;;;;;;7414132;19;20349;-87
2023/01/31 00:48:08;;;;;;;6.27;2.43;;;3.60;99.90;;;;;;7416595;19;20327;-86
2023/01/31 00:50:33;;;;;;;5.65;2.50;;;3.60;99.90;;;;;;7414709;19;20321;-87
2023/01/31 00:52:59;;;;;;;9.97;3.00;;;3.60;99.90;;;;;;7416597;19;20392;-86
2023/01/31 00:55:24;;;;;;;9.15;2.55;;;3.60;99.90;;;;;;7415174;19;20321;-86
2023/01/31 00:57:50;;;;;;;6.33;2.90;;;3.60;99.90;;;;;;7414764;19;20332;-87
2023/01/31 01:00:16;;;;;;;7.20;2.60;;;3.60;99.90;;;;;;7413088;19;20317;-90
2023/01/31 01:02:42;;;;;;;5.97;2.33;;;3.60;99.90;;;;;;7416053;19;20316;-86
2023/01/31 01:05:08;;;;;;;5.20;2.50;;;3.60;99.90;;;;;;7413523;19;20317;-89
2023/01/31 01:07:33;;;;;;;7.32;2.75;;;3.60;99.90;;;;;;7414199;19;20320;-88
2023/01/31 01:09:59;;;;;;;7.23;2.50;;;3.60;99.90;;;;;;7415124;19;20325;-86
2023/01/31 01:12:24;;;;;;;5.03;2.10;;;3.60;99.90;;;;;;7414697;19;20340;-87
2023/01/31 01:14:50;;;;;;;5.53;2.60;;;3.70;99.90;;;;;;7413608;19;20324;-86
2023/01/31 01:17:15;;;;;;;4.63;2.47;;;3.50;99.90;;;;;;7412011;19;20329;-85
2023/01/31 01:19:41;;;;;;;4.83;2.23;;;3.60;99.90;;;;;;7413324;19;20684;-86
2023/01/31 01:22:07;;;;;;;6.40;2.72;;;3.60;99.90;;;;;;7412257;19;20333;-86
2023/01/31 01:24:33;;;;;;;8.93;2.70;;;3.60;99.90;;;;;;7414390;19;20312;-86
2023/01/31 01:27:03;;;;;;;7.10;2.28;;;3.60;99.90;;;;;;7413931;19;20312;-86
2023/01/31 01:29:47;;;;;;;8.00;3.10;;;3.60;99.90;;;;;;7412058;19;20309;-91
2023/01/31 01:32:13;;;;;;;6.80;2.60;;;3.60;99.90;;;;;;7413058;19;20345;-90
2023/01/31 01:34:39;;;;;;;6.47;2.57;;;3.50;99.90;;;;;;7412183;19;20341;-86
2023/01/31 01:37:10;;;;;;;10.25;2.53;;;3.60;99.90;;;;;;7414077;19;20329;-87
2023/01/31 01:39:39;;;;;;;5.55;2.20;;;3.60;99.90;;;;;;7415088;19;20340;-88
2023/01/31 01:42:05;;;;;;;7.85;2.72;;;3.50;99.90;;;;;;7414306;19;20333;-89
2023/01/31 01:44:46;;;;;;;6.27;2.40;;;3.50;99.90;;;;;;7412504;19;20316;-86
2023/01/31 01:47:26;;;;;;;7.50;2.80;;;3.50;99.90;;;;;;7413676;19;20305;-87
2023/01/31 01:49:54;;;;;;;9.13;3.00;;;3.50;99.90;;;;;;7413953;19;20330;-87
2023/01/31 01:52:20;;;;;;;13.20;2.83;;;3.60;99.90;;;;;;7414057;19;20320;-88
2023/01/31 01:54:49;;;;;;;9.07;2.67;;;3.50;99.90;;;;;;7412265;19;20309;-88
2023/01/31 01:57:16;;;;;;;6.85;2.42;;;3.50;99.90;;;;;;7413768;19;20392;-86
2023/01/31 01:59:44;;;;;;;5.35;2.30;;;3.50;99.90;;;;;;7413627;19;20320;-87
2023/01/31 02:02:09;;;;;;;9.73;2.80;;;3.50;99.90;;;;;;7413275;19;20325;-89
2023/01/31 02:04:36;;;;;;;5.07;2.37;;;3.50;99.90;;;;;;7412684;19;20910;-86
2023/01/31 02:07:02;;;;;;;6.45;2.35;;;3.50;99.90;;;;;;7413928;19;20360;-87
2023/01/31 02:09:36;;;;;;;9.43;2.67;;;3.50;99.90;;;;;;7414449;19;20353;-87
2023/01/31 02:12:04;;;;;;;6.00;2.40;;;3.50;99.90;;;;;;7309362;19;2004187;-87
2023/01/31 02:14:30;;;;;;;6.50;2.40;;;3.60;99.90;;;;;;7414005;19;20356;-87
2023/01/31 02:16:56;;;;;;;5.65;2.28;;;3.50;99.90;;;;;;7414931;19;20345;-87
2023/01/31 02:20:00;;;;;;;5.97;2.33;;;3.50;99.90;;;;;;7413029;19;20309;-87
2023/01/31 02:22:28;;;;;;;8.18;2.65;;;3.50;99.90;;;;;;7310282;19;2004003;-88
2023/01/31 02:25:28;;;;;;;9.18;2.60;;;3.50;99.90;;;;;;7411092;19;20314;-88
2023/01/31 02:28:19;;;;;;;5.22;2.60;;;3.50;99.90;;;;;;7310597;19;2004239;-86
2023/01/31 02:31:10;;;;;;;4.57;2.25;;;3.50;99.90;;;;;;7309078;19;2004187;-86
2023/01/31 02:33:38;;;;;;;7.97;2.70;;;3.50;99.90;;;;;;7308657;19;2004169;-87
2023/01/31 02:36:38;;;;;;;6.53;2.38;;;3.40;99.90;;;;;;7412090;19;20327;-87
2023/01/31 02:39:36;;;;;;;5.32;2.58;;;3.40;99.90;;;;;;7310660;19;2004016;-87
2023/01/31 02:42:11;;;;;;;5.35;2.30;;;3.40;99.90;;;;;;7310163;19;2004183;-87
2023/01/31 02:45:00;;;;;;;4.90;2.20;;;3.40;99.90;;;;;;7411709;19;20325;-87
2023/01/31 02:48:00;;;;;;;7.95;2.45;;;3.40;99.90;;;;;;7414968;19;20632;-87
2023/01/31 02:50:34;;;;;;;5.20;2.15;;;3.40;99.90;;;;;;7316544;19;2004021;-86
2023/01/31 02:53:12;;;;;;;5.75;2.20;;;3.40;99.90;;;;;;7418250;19;20304;-89
2023/01/31 02:56:13;;;;;;;6.68;2.40;;;3.50;99.90;;;;;;7315882;19;2004204;-86
2023/01/31 02:58:41;;;;;;;4.63;2.20;;;3.40;99.90;;;;;;7316333;19;2003986;-89
2023/01/31 03:01:11;;;;;;;7.82;2.35;;;3.40;99.90;;;;;;7417892;19;20301;-87
2023/01/31 03:03:37;;;;;;;7.30;2.42;;;3.40;99.90;;;;;;7417217;19;20317;-88
2023/01/31 03:06:21;;;;;;;5.30;2.40;;;3.40;99.90;;;;;;7418583;19;20324;-87
2023/01/31 03:09:09;;;;;;;6.03;2.10;;;3.40;99.90;;;;;;7418914;19;20301;-85
2023/01/31 03:12:00;;;;;;;6.13;2.05;;;3.40;99.90;;;;;;7315130;19;2004028;-85
2023/01/31 03:14:28;;;;;;;6.20;2.13;;;3.40;99.90;;;;;;7419032;19;20284;-90
2023/01/31 03:20:08;;;;;;;5.82;2.40;;;3.30;99.90;;;;;;7316121;19;2004220;-88
2023/01/31 03:22:37;;;;;;;2.58;1.80;;;3.30;99.90;;;;;;7314990;19;2004351;-90
2023/01/31 03:25:04;;;;;;;4.90;2.15;;;3.30;99.90;;;;;;7417514;19;20317;-88
2023/01/31 03:27:30;;;;;;;4.87;1.90;;;3.30;99.90;;;;;;7419264;19;20321;-90
2023/01/31 03:30:01;;;;;;;6.40;2.25;;;3.10;99.90;;;;;;7417524;19;20341;-89
2023/01/31 03:32:49;;;;;;;5.85;2.15;;;3.20;99.90;;;;;;7417484;19;20304;-87
2023/01/31 03:35:17;;;;;;;5.28;1.90;;;3.20;99.90;;;;;;7314766;19;2004149;-89
2023/01/31 03:37:47;;;;;;;8.38;2.42;;;3.10;99.90;;;;;;7418020;19;20368;-86
2023/01/31 03:40:24;;;;;;;5.10;2.30;;;3.00;99.90;;;;;;7417350;19;20378;-89
2023/01/31 03:42:54;;;;;;;7.80;2.40;;;3.00;99.90;;;;;;7416662;19;20321;-88
2023/01/31 03:45:26;;;;;;;5.05;2.40;;;3.00;99.90;;;;;;7416655;19;20329;-90
2023/01/31 03:47:52;;;;;;;6.35;2.30;;;3.00;99.90;;;;;;7417495;19;20288;-87
2023/01/31 03:50:27;;;;;;;6.88;2.10;;;3.10;99.90;;;;;;7417038;19;20328;-90
2023/01/31 03:53:03;;;;;;;4.00;2.13;;;3.00;99.90;;;;;;7414893;19;20297;-88
2023/01/31 03:55:44;;;;;;;5.38;2.22;;;2.90;99.90;;;;;;7416949;19;20321;-87
2023/01/31 03:58:10;;;;;;;6.75;2.00;;;2.90;99.90;;;;;;7314282;19;2004110;-87
2023/01/31 04:00:35;;;;;;;6.00;2.38;;;2.90;99.90;;;;;;7413659;19;20341;-87
2023/01/31 04:03:11;;;;;;;6.63;2.30;;;2.80;99.90;;;;;;7417063;19;20744;-85
2023/01/31 04:05:36;;;;;;;5.32;2.15;;;2.90;99.90;;;;;;7417410;19;20350;-86
2023/01/31 04:08:03;;;;;;;4.38;2.17;;;2.90;99.90;;;;;;7416958;19;20316;-87
2023/01/31 04:10:31;;;;;;;5.75;2.20;;;2.90;99.90;;;;;;7416340;19;20384;-88
2023/01/31 04:12:57;;;;;;;5.17;2.10;;;2.80;99.90;;;;;;7417858;19;20309;-90
2023/01/31 04:15:23;;;;;;;7.65;2.22;;;3.00;99.90;;;;;;7416048;19;20297;-88
2023/01/31 04:17:49;;;;;;;5.43;2.13;;;2.90;99.90;;;;;;7415877;19;20313;-86
2023/01/31 04:20:15;;;;;;;7.15;1.92;;;2.90;99.90;;;;;;7415581;19;20378;-87
2023/01/31 04:22:41;;;;;;;3.15;2.10;;;2.90;99.90;;;;;;7413739;19;20317;-89
2023/01/31 04:25:07;;;;;;;5.77;2.40;;;2.90;99.90;;;;;;7416171;19;20308;-87
2023/01/31 04:27:32;;;;;;;5.97;1.92;;;2.90;99.90;;;;;;7416598;19;20345;-88
2023/01/31 04:29:58;;;;;;;6.43;2.15;;;3.00;99.90;;;;;;7417167;19;20738;-88
2023/01/31 04:32:23;;;;;;;4.83;2.10;;;3.00;99.90;;;;;;7416134;19;20359;-89
2023/01/31 04:34:49;;;;;;;5.72;2.13;;;3.00;99.90;;;;;;7416802;19;20337;-88
2023/01/31 04:37:15;;;;;;;3.87;1.90;;;3.10;99.90;;;;;;7416787;19;20317;-87
2023/01/31 04:39:40;;;;;;;4.82;1.98;;;3.10;99.90;;;;;;7416172;19;20328;-87
2023/01/31 04:42:06;;;;;;;4.77;2.13;;;3.10;99.90;;;;;;7417070;19;20334;-85
2023/01/31 04:44:32;;;;;;;4.00;2.00;;;3.10;99.90;;;;;;7415601;19;20299;-85
2023/01/31 04:46:57;;;;;;;5.30;2.00;;;3.10;99.90;;;;;;7417561;19;20340;-87
2023/01/31 04:49:23;;;;;;;7.07;2.07;;;3.10;99.90;;;;;;7417088;19;20336;-86
2023/01/31 04:51:48;;;;;;;3.93;1.80;;;3.10;99.90;;;;;;7416172;19;20344;-86
2023/01/31 04:54:15;;;;;;;4.32;1.90;;;3.10;99.90;;;;;;7415307;19;20403;-87
2023/01/31 04:56:40;;;;;;;6.03;2.43;;;3.20;99.90;;;;;;7416002;19;20757;-86
2023/01/31 04:59:06;;;;;;;6.72;2.30;;;3.20;99.90;;;;;;7415483;19;20327;-89
2023/01/31 05:01:31;;;;;;;3.77;1.90;;;3.20;99.90;;;;;;7414502;19;20323;-87
2023/01/31 05:03:57;;;;;;;4.13;1.90;;;3.20;99.90;;;;;;7416021;19;20304;-86
2023/01/31 05:06:23;;;;;;;8.27;2.30;;;3.20;99.90;;;;;;7414205;19;20301;-86
2023/01/31 05:08:48;;;;;;;3.67;1.73;;;3.20;99.90;;;;;;7414868;19;20348;-88
2023/01/31 05:11:14;;;;;;;6.55;2.17;;;3.10;99.90;;;;;;7412484;19;20321;-85
2023/01/31 05:13:41;;;;;;;5.43;1.80;;;3.20;99.90;;;;;;7413959;19;20356;-89
2023/01/31 05:16:08;;;;;;;6.53;2.05;;;3.10;99.90;;;;;;7415573;19;20364;-86
2023/01/31 05:18:34;;;;;;;3.17;1.98;;;3.10;99.90;;;;;;7415192;19;20313;-84
2023/01/31 05:21:01;;;;;;;5.07;2.20;;;3.10;99.90;;;;;;7416567;19;20329;-86
2023/01/31 05:23:26;;;;;;;5.20;2.20;;;3.10;99.90;;;;;;7415282;19;20300;-88
2023/01/31 05:25:52;;;;;;;7.27;2.30;;;3.00;99.90;;;;;;7413651;19;20323;-87
2023/01/31 05:28:18;;;;;;;7.43;2.47;;;3.10;99.90;;;;;;7414260;19;20324;-87
2023/01/31 05:30:43;;;;;;;4.97;2.00;;;3.10;99.90;;;;;;7411807;19;20332;-87
2023/01/31 05:33:09;;;;;;;6.63;2.35;;;3.10;99.90;;;;;;7411515;19;20308;-86
2023/01/31 05:35:34;;;;;;;4.53;2.27;;;3.00;99.90;;;;;;7414200;19;20364;-84
2023/01/31 05:38:00;;;;;;;4.20;1.90;;;3.00;99.90;;;;;;7414565;19;20361;-87
2023/01/31 05:40:26;;;;;;;6.60;2.30;;;3.00;99.90;;;;;;7413975;19;20297;-87
2023/01/31 05:42:55;;;;;;;5.13;2.10;;;3.00;99.90;;;;;;7413936;19;20325;-88
2023/01/31 05:45:21;;;;;;;5.57;2.17;;;3.00;99.90;;;;;;7413980;19;20356;-84
2023/01/31 05:47:47;;;;;;;5.00;2.08;;;3.00;99.90;;;;;;7413526;19;20336;-89
2023/01/31 05:50:12;;;;;;;6.55;2.28;;;3.00;99.90;;;;;;7412798;19;20373;-87
2023/01/31 05:52:38;;;;;;;8.00;2.37;;;3.00;99.90;;;;;;7412641;19;20390;-82
2023/01/31 05:55:04;;;;;;;4.65;2.20;;;3.10;99.90;;;;;;7413004;19;20308;-88
2023/01/31 05:57:29;;;;;;;3.60;2.15;;;3.00;99.90;;;;;;7414362;19;20320;-87
2023/01/31 05:59:55;;;;;;;4.83;2.00;;;3.00;99.90;;;;;;7413897;19;20325;-87
2023/01/31 06:02:21;;;;;;;5.93;1.98;;;3.00;99.90;;;;;;7409182;19;20332;-87
2023/01/31 06:04:46;;;;;;;2.87;2.00;;;3.00;99.90;;;;;;7411763;19;20356;-88
2023/01/31 06:07:12;;;;;;;4.97;2.25;;;3.00;99.90;;;;;;7413967;19;20313;-86
2023/01/31 06:09:39;;;;;;;4.93;2.30;;;3.00;99.90;;;;;;7414694;19;20332;-87
2023/01/31 06:12:06;;;;;;;4.53;1.83;;;3.00;99.90;;;;;;7405267;19;20319;-83
2023/01/31 06:18:06;;;;;;;4.30;1.80;;;3.00;99.90;;;;;;7415899;19;20329;-83
2023/01/31 06:20:33;;;;;;;6.68;2.20;;;3.00;99.90;;;;;;7394445;19;20336;-86
2023/01/31 06:23:00;;;;;;;5.72;2.03;;;3.00;99.90;;;;;;7375042;19;20326;-87
2023/01/31 06:25:37;;;;;;;5.28;2.00;;;3.10;99.90;;;;;;7417939;19;20316;-84
2023/01/31 06:28:13;;;;;;;6.85;2.30;;;3.10;99.90;;;;;;7303017;19;2004244;-79
2023/01/31 06:30:41;;;;;;;5.10;2.10;;;3.10;99.90;;;;;;7412395;19;20328;-87
2023/01/31 06:33:08;;;;;;;6.40;2.00;;;3.00;99.90;;;;;;7402084;19;20388;-81
2023/01/31 06:35:34;;;;;;;6.05;2.25;;;3.00;99.90;;;;;;7386801;19;20342;-86
2023/01/31 06:38:00;;;;;;;4.07;1.90;;;3.10;99.90;;;;;;7393494;19;20679;-87
2023/01/31 06:40:25;;;;;;;6.13;2.07;;;3.10;99.90;;;;;;7392495;19;20324;-81
2023/01/31 06:42:51;;;;;;;4.88;2.10;;;3.10;99.90;;;;;;7392618;19;20347;-88
2023/01/31 06:45:17;;;;;;;8.17;2.47;;;3.10;99.90;;;;;;7390520;19;20318;-86
2023/01/31 06:47:45;;;;;;;6.95;2.30;;;3.10;99.90;;;;;;7391835;19;20351;-83
2023/01/31 06:50:11;;;;;;;3.72;2.10;;;3.10;99.90;;;;;;7390225;19;20316;-83
2023/01/31 06:52:38;;;;;;;3.42;2.20;;;3.10;99.90;;;;;;7390864;19;20336;-90
2023/01/31 06:55:04;;;;;;;5.13;2.13;;;3.10;99.90;;;;;;7388353;19;20333;-83
2023/01/31 06:57:29;;;;;;;4.35;2.15;;;3.10;99.90;;;;;;7389947;19;20341;-88
2023/01/31 06:59:55;;;;;;;5.57;2.10;;;3.10;99.90;;;;;;7392157;19;20507;-82
2023/01/31 07:02:21;;;;;;;5.70;2.38;;;3.20;99.90;;;;;;7391697;19;20312;-80
2023/01/31 07:04:46;;;;;;;5.47;2.10;;;3.10;99.90;;;;;;7389941;19;20340;-81
2023/01/31 07:07:12;;;;;;;6.20;2.22;;;3.10;99.90;;;;;;7388814;19;20312;-85
2023/01/31 07:09:37;;;;;;;8.40;3.20;;;3.10;99.90;;;;;;7391557;19;20337;-77
2023/01/31 07:12:03;;;;;;;6.93;2.50;;;3.10;99.90;;;;;;7393014;19;20324;-84
2023/01/31 07:14:29;;;;;;;5.57;2.50;;;3.10;99.90;;;;;;7388105;19;20336;-79
2023/01/31 07:16:54;;;;;;;6.23;2.50;;;3.20;99.90;;;;;;7391564;19;20323;-85
2023/01/31 07:19:20;;;;;;;6.22;2.38;;;3.20;99.90;;;;;;7390240;19;20325;-84
2023/01/31 07:21:47;;;;;;;5.90;2.33;;;3.20;99.90;;;;;;7391815;19;20344;-86
2023/01/31 07:24:14;;;;;;;6.88;2.45;;;3.20;99.90;;;;;;7389708;19;20344;-82
2023/01/31 07:26:40;;;;;;;5.72;2.38;;;3.20;99.90;;;;;;7388954;19;20368;-85
2023/01/31 07:29:05;;;;;;;4.50;2.03;;;3.20;99.90;;;;;;7391395;19;20336;-78
2023/01/31 07:31:31;;;;;;;3.87;2.13;;;3.20;99.90;;;;;;7392681;19;20347;-83
2023/01/31 07:33:56;;;;;;;8.00;2.88;;;3.30;99.90;;;;;;7389454;19;20319;-80
2023/01/31 07:36:25;;;;;;;5.03;2.17;;;3.30;99.90;;;;;;7385384;19;20408;-86
2023/01/31 07:38:54;;;;;;;6.37;2.43;;;3.30;99.90;;;;;;7389504;19;20356;-85
2023/01/31 07:41:20;;;;;;;3.92;2.17;;;3.30;99.90;;;;;;7388496;19;20320;-83
2023/01/31 07:43:46;;;;;;;7.93;3.03;;;3.30;99.90;;;;;;7389719;19;20906;-87
2023/01/31 07:46:11;;;;;;;3.93;2.60;;;3.30;99.90;;;;;;7385744;19;20304;-89
2023/01/31 07:48:37;;;;;;;5.20;1.85;;;3.30;99.90;;;;;;7389089;19;20427;-80
2023/01/31 07:51:03;;;;;;;5.20;2.77;;;3.20;99.90;;;;;;7388428;19;20830;-80
2023/01/31 07:53:29;;;;;;;5.53;2.20;;;3.20;99.90;;;;;;7389952;19;20337;-77
2023/01/31 07:56:03;;;;;;;5.35;2.30;;;3.30;99.90;;;;;;7385834;19;20305;-86
2023/01/31 07:58:29;;;;;;;4.85;2.40;;;3.20;99.90;;;;;;7388239;19;20855;-82
2023/01/31 08:03:40;;;;;;;4.97;2.30;;;3.20;99.90;;;;;;7284016;19;2004335;-83
2023/01/31 08:06:09;;;;;;;5.15;2.00;;;3.20;99.90;;;;;;7383871;19;20328;-83
2023/01/31 08:08:35;;;;;;;4.75;2.00;;;3.20;99.90;;;;;;7382031;19;20343;-84
2023/01/31 08:11:03;;;;;;;6.10;2.17;;;3.30;99.90;;;;;;7388530;19;20316;-86
2023/01/31 08:13:32;;;;;;;3.85;2.10;;;3.30;99.90;;;;;;7385973;19;20337;-82
2023/01/31 08:15:58;;;;;;;7.53;1.80;;;3.30;99.90;;;;;;7385316;19;20305;-82
2023/01/31 08:18:24;;;;;;;3.60;1.70;;;3.20;99.90;;;;;;7384843;19;20307;-76
2023/01/31 08:20:49;;;;;;;1.98;1.60;;;3.20;99.90;;;;;;7386748;19;20333;-85
2023/01/31 08:23:15;;;;;;;5.37;1.87;;;3.20;99.90;;;;;;7386272;19;20317;-84
2023/01/31 08:25:41;;;;;;;4.63;1.83;;;3.20;99.90;;;;;;7383959;19;20340;-88
2023/01/31 08:28:06;;;;;;;4.45;2.08;;;3.20;99.90;;;;;;7385619;19;20333;-85
2023/01/31 08:30:32;;;;;;;3.83;1.70;;;3.20;99.90;;;;;;7387019;19;20348;-81
2023/01/31 08:32:59;;;;;;;3.38;1.80;;;3.30;99.90;;;;;;7393674;19;20324;-87
2023/01/31 08:35:25;;;;;;;4.80;2.00;;;3.30;99.90;;;;;;7389963;19;20316;-90
2023/01/31 08:37:51;;;;;;;4.37;2.13;;;3.30;99.90;;;;;;7392523;19;20399;-89
2023/01/31 08:40:17;;;;;;;3.40;2.10;;;3.30;99.90;;;;;;7390907;19;20317;-89
2023/01/31 08:42:42;;;;;;;3.97;1.95;;;3.40;99.90;;;;;;7390305;19;20371;-84
2023/01/31 08:45:08;;;;;;;3.55;2.08;;;3.40;99.90;;;;;;7385459;19;20428;-91
2023/01/31 08:47:35;;;;;;;5.43;2.33;;;3.40;99.90;;;;;;7391368;19;20347;-89
2023/01/31 08:50:01;;;;;;;6.57;2.17;;;3.40;99.90;;;;;;7393601;19;20966;-90
2023/01/31 08:52:26;;;;;;;6.22;3.20;;;3.40;99.90;;;;;;7391952;19;20312;-88
2023/01/31 08:54:52;;;;;;;8.03;2.63;;;3.50;99.90;;;;;;7388016;19;20419;-84
2023/01/31 08:57:19;;;;;;;7.83;2.60;;;3.50;99.90;;;;;;7389329;19;20317;-87
2023/01/31 08:59:45;;;;;;;3.58;2.25;;;3.50;99.90;;;;;;7390173;19;20349;-90
2023/01/31 09:02:11;;;;;;;7.13;2.75;;;3.60;99.90;;;;;;7390828;19;20316;-91
2023/01/31 09:04:36;;;;;;;7.47;2.80;;;3.60;99.90;;;;;;7387428;19;20385;-87
2023/01/31 09:07:02;;;;;;;4.10;2.45;;;3.70;99.90;;;;;;7393396;19;21243;-83
2023/01/31 09:09:27;;;;;;;4.17;2.37;;;3.70;99.90;;;;;;7388804;19;20340;-92
2023/01/31 09:11:53;;;;;;;4.53;2.47;;;3.80;99.90;;;;;;7391275;19;20327;-80
2023/01/31 09:14:19;;;;;;;6.40;2.77;;;3.80;99.90;;;;;;7385721;19;20344;-83
2023/01/31 09:16:45;;;;;;;4.75;2.40;;;3.80;99.90;;;;;;7390219;19;20360;-88
2023/01/31 09:19:11;;;;;;;6.47;2.97;;;3.90;99.90;;;;;;7392451;19;20338;-82
2023/01/31 09:21:37;;;;;;;8.63;2.70;;;3.90;99.90;;;;;;7392187;19;20355;-92
2023/01/31 09:24:03;;;;;;;4.53;2.22;;;3.90;99.90;;;;;;7389219;19;20325;-85
2023/01/31 09:26:30;;;;;;;5.57;2.25;;;4.00;99.90;;;;;;7390853;19;20351;-84
2023/01/31 09:28:57;;;;;;;3.13;2.08;;;4.00;99.90;;;;;;7391420;19;20315;-83
2023/01/31 09:31:23;;;;;;;3.72;1.90;;;4.00;99.90;;;;;;7387724;19;20327;-83
2023/01/31 09:33:49;;;;;;;5.17;2.30;;;4.00;99.90;;;;;;7392552;19;20353;-86
2023/01/31 09:36:16;;;;;;;5.57;2.63;;;4.00;99.90;;;;;;7386630;19;20780;-79
2023/01/31 09:38:41;;;;;;;3.95;2.42;;;4.00;99.90;;;;;;7384338;19;20957;-79
2023/01/31 09:41:27;;;;;;;5.28;2.58;;;4.00;99.90;;;;;;7383872;19;20308;-79
2023/01/31 09:44:05;;;;;;;5.00;2.50;;;4.00;99.90;;;;;;7386557;19;20324;-78
2023/01/31 09:46:34;;;;;;;6.18;2.67;;;4.00;99.90;;;;;;7387876;19;20686;-80
2023/01/31 09:49:01;;;;;;;3.83;2.40;;;4.00;99.90;;;;;;7387093;19;20308;-85
2023/01/31 09:51:26;;;;;;;4.18;2.40;;;4.00;99.90;;;;;;7385294;19;20312;-80
2023/01/31 09:53:52;;;;;;;7.70;3.77;;;4.00;99.90;;;;;;7386272;19;20375;-77
2023/01/31 09:56:42;;;;;;;6.03;3.42;;;4.00;99.90;;;;;;7383151;19;20308;-78
2023/01/31 09:59:20;;;;;;;6.45;3.10;;;4.00;99.90;;;;;;7288775;19;2004311;-88
2023/01/31 10:02:10;;;;;;;7.85;3.47;;;4.00;99.90;;;;;;7390337;19;20366;-80
2023/01/31 10:04:42;;;;;;;5.20;2.80;;;4.00;99.90;;;;;;7288863;19;2004906;-79
2023/01/31 10:07:36;;;;;;;8.50;2.65;;;4.10;99.90;;;;;;7390316;19;20853;-81
2023/01/31 10:10:16;;;;;;;6.13;2.95;;;4.20;99.90;;;;;;7389019;19;20313;-81
2023/01/31 10:12:44;;;;;;;7.22;2.95;;;4.20;99.90;;;;;;7285419;19;2004316;-85
2023/01/31 10:15:36;;;;;;;5.28;2.47;;;4.30;99.90;;;;;;7387341;19;20930;-79
2023/01/31 10:18:14;;;;;;;7.97;3.20;;;4.30;99.90;;;;;;7389028;19;20414;-81
2023/01/31 10:20:51;;;;;;;5.55;2.50;;;4.30;99.90;;;;;;7284212;19;2004669;-79
2023/01/31 10:23:22;;;;;;;4.28;2.20;;;4.30;99.90;;;;;;7386840;19;20316;-82
2023/01/31 10:25:52;;;;;;;4.30;2.35;;;4.40;99.90;;;;;;7391131;19;20341;-83
2023/01/31 10:28:24;;;;;;;5.50;2.58;;;4.30;99.90;;;;;;7387207;19;20329;-81
2023/01/31 10:31:02;;;;;;;5.38;2.30;;;4.30;99.90;;;;;;7386031;19;20359;-77
2023/01/31 10:33:40;;;;;;;5.60;3.20;;;4.30;99.90;;;;;;7393046;19;20345;-78
2023/01/31 10:36:28;;;;;;;6.60;2.00;;;4.40;99.90;;;;;;7284899;19;2004279;-81
2023/01/31 10:39:26;;;;;;;7.28;2.15;;;4.40;99.90;;;;;;7389533;19;20320;-79
2023/01/31 10:42:16;;;;;;;2.95;2.03;;;4.40;99.90;;;;;;7281065;19;2004578;-79
2023/01/31 10:45:20;;;;;;;5.35;2.30;;;4.50;99.90;;;;;;7286179;19;2004650;-84
2023/01/31 10:47:53;;;;;;;3.47;2.17;;;4.50;99.90;;;;;;7284117;19;2004837;-80
2023/01/31 10:50:31;;;;;;;2.85;1.70;;;4.60;99.90;;;;;;7384517;19;20420;-78
2023/01/31 10:53:21;;;;;;;6.00;1.95;;;4.60;99.90;;;;;;7388022;19;20339;-78
2023/01/31 10:55:58;;;;;;;5.60;2.10;;;4.60;99.90;;;;;;7288190;19;2004322;-80
2023/01/31 10:58:24;;;;;;;5.22;2.13;;;4.70;99.90;;;;;;7386922;19;20330;-82
2023/01/31 11:00:50;;;;;;;4.10;2.00;;;4.70;99.90;;;;;;7388352;19;20340;-80
2023/01/31 11:03:16;;;;;;;2.35;1.80;;;4.80;99.90;;;;;;7388133;19;20449;-81
2023/01/31 11:05:54;;;;;;;10.10;2.70;;;4.70;99.90;;;;;;7387680;19;20340;-78
2023/01/31 11:08:40;;;;;;;6.32;2.30;;;4.80;99.90;;;;;;7385714;19;20324;-79
2023/01/31 11:11:11;;;;;;;5.07;2.40;;;4.80;99.90;;;;;;7285108;19;2004561;-80
2023/01/31 11:13:37;;;;;;;5.85;1.95;;;4.80;99.90;;;;;;7385788;19;20356;-80
2023/01/31 11:16:05;;;;;;;3.10;1.75;;;4.70;99.90;;;;;;7385179;19;20308;-79
2023/01/31 11:18:33;;;;;;;7.88;1.90;;;4.70;99.90;;;;;;7388589;19;20373;-78
2023/01/31 11:21:00;;;;;;;4.82;2.10;;;4.70;99.90;;;;;;7382883;19;20356;-82
2023/01/31 11:23:27;;;;;;;5.20;2.40;;;4.70;99.90;;;;;;7381005;19;20312;-86
2023/01/31 11:25:53;;;;;;;2.83;1.77;;;4.70;99.90;;;;;;7387522;19;20360;-81
2023/01/31 11:28:20;;;;;;;2.80;1.70;;;4.80;99.90;;;;;;7383725;19;20946;-77
2023/01/31 11:30:47;;;;;;;5.45;2.20;;;4.80;99.90;;;;;;7379889;19;20341;-79
2023/01/31 11:33:46;;;;;;;6.43;3.30;;;4.70;99.90;;;;;;7385226;19;20316;-82
2023/01/31 11:36:16;;;;;;;3.10;1.60;;;4.70;99.90;;;;;;7283025;19;2004339;-76
2023/01/31 11:38:42;;;;;;;3.85;2.05;;;4.60;99.90;;;;;;7385083;19;20798;-79
2023/01/31 11:41:26;;;;;;;3.17;2.00;;;4.60;99.90;;;;;;7381176;19;20325;-81
2023/01/31 11:44:12;;;;;;;4.53;2.22;;;4.60;99.90;;;;;;7382647;19;20854;-83
2023/01/31 11:46:43;;;;;;;5.50;2.50;;;4.60;99.90;;;;;;7281287;19;2004341;-78
2023/01/31 11:49:11;;;;;;;5.67;2.30;;;4.60;99.90;;;;;;7385194;19;20323;-78
2023/01/31 11:51:37;;;;;;;5.97;2.05;;;4.70;99.90;;;;;;7382772;19;20344;-80
2023/01/31 11:54:03;;;;;;;2.93;2.10;;;4.70;99.90;;;;;;7382667;19;20316;-76
2023/01/31 11:56:30;;;;;;;4.78;2.25;;;4.70;99.90;;;;;;7385069;19;20351;-84
2023/01/31 11:59:04;;;;;;;10.88;2.88;;;4.80;99.90;;;;;;7387288;19;20676;-79
2023/01/31 12:01:30;;;;;;;6.90;2.50;;;4.80;99.90;;;;;;7381436;19;20332;-81
2023/01/31 12:04:03;;;;;;;6.03;2.50;;;4.90;99.90;;;;;;7383987;19;20305;-83
2023/01/31 12:06:32;;;;;;;5.00;2.40;;;5.00;99.90;;;;;;7387955;19;20381;-78
2023/01/31 12:08:58;;;;;;;4.30;2.40;;;5.00;99.90;;;;;;7384790;19;20346;-77
2023/01/31 12:11:34;;;;;;;5.65;2.35;;;5.00;99.90;;;;;;7381238;19;20349;-79
2023/01/31 12:14:13;;;;;;;5.30;2.28;;;5.00;99.90;;;;;;7383847;19;20720;-82
2023/01/31 12:16:38;;;;;;;4.10;2.25;;;5.00;99.90;;;;;;7282004;19;2004410;-77
2023/01/31 12:19:13;;;;;;;5.70;2.60;;;5.00;99.90;;;;;;7382478;19;20354;-84
2023/01/31 12:22:02;;;;;;;6.05;2.53;;;5.00;99.90;;;;;;7381155;19;20804;-82
2023/01/31 12:24:40;;;;;;;5.05;2.20;;;5.00;99.90;;;;;;7381461;19;20344;-78
2023/01/31 12:27:26;;;;;;;6.67;2.60;;;5.00;99.90;;;;;;7281110;19;2004954;-76
2023/01/31 12:29:57;;;;;;;7.03;2.58;;;5.00;99.90;;;;;;7383742;19;20372;-81
2023/01/31 12:32:26;;;;;;;7.10;2.60;;;5.00;99.90;;;;;;7382781;19;20361;-79
2023/01/31 12:35:29;;;;;;;3.90;2.15;;;5.00;99.90;;;;;;7382668;19;20340;-76
2023/01/31 12:38:25;;;;;;;8.37;2.80;;;5.00;99.90;;;;;;7278870;19;2004826;-78
2023/01/31 12:41:08;;;;;;;4.13;2.30;;;5.00;99.90;;;;;;7281163;19;2004188;-79
2023/01/31 12:44:02;;;;;;;5.97;2.55;;;5.00;99.90;;;;;;7278018;19;2004325;-77
2023/01/31 12:46:42;;;;;;;8.50;2.50;;;5.00;99.90;;;;;;7385965;19;20349;-78
2023/01/31 12:49:26;;;;;;;6.70;2.60;;;5.00;99.90;;;;;;7280881;19;2004552;-78
2023/01/31 12:52:04;;;;;;;6.82;2.58;;;5.00;99.90;;;;;;7385326;19;20461;-79
2023/01/31 12:54:45;;;;;;;3.88;2.40;;;5.00;99.90;;;;;;7387367;19;20348;-78
2023/01/31 12:57:25;;;;;;;6.22;2.75;;;5.10;99.90;;;;;;7284898;19;2004220;-78
2023/01/31 13:00:21;;;;;;;7.20;2.53;;;5.10;99.90;;;;;;7388557;19;20368;-80
2023/01/31 13:03:12;;;;;;;5.85;2.45;;;5.10;99.90;;;;;;7180554;19;2004557;-79
2023/01/31 13:05:45;;;;;;;7.90;2.72;;;5.10;99.90;;;;;;7284945;19;2013388;-82
2023/01/31 13:08:16;;;;;;;4.47;2.78;;;5.10;99.90;;;;;;7386699;19;20400;-81
2023/01/31 13:10:57;;;;;;;6.20;2.63;;;5.10;99.90;;;;;;7385864;19;20982;-76
2023/01/31 13:13:31;;;;;;;5.55;3.10;;;5.10;99.90;;;;;;7387366;19;20320;-81
2023/01/31 13:15:59;;;;;;;4.30;2.50;;;5.10;99.90;;;;;;7386281;19;20305;-81
2023/01/31 13:18:25;;;;;;;5.50;2.80;;;5.10;99.90;;;;;;7387427;19;20305;-78
2023/01/31 13:20:56;;;;;;;5.65;2.70;;;5.10;99.90;;;;;;7381022;19;20341;-79
2023/01/31 13:23:39;;;;;;;6.22;2.97;;;5.10;99.90;;;;;;7381808;19;20352;-79